createdAt,value
2018-12-14T00:02:06.594Z,25.37
2018-12-14T00:04:36.002Z,25.60
2018-12-14T00:07:05.388Z,25.67
2018-12-14T00:09:34.442Z,25.00
2018-12-14T00:12:03.492Z,25.80
2018-12-14T00:14:32.660Z,24.87
2018-12-14T00:17:01.825Z,25.07
2018-12-14T00:19:30.910Z,25.20
2018-12-14T00:22:00.352Z,23.47
2018-12-14T00:24:29.525Z,23.60
2018-12-14T00:26:59.066Z,23.23
2018-12-14T00:29:28.255Z,24.03
2018-12-14T00:31:57.443Z,23.00
2018-12-14T00:34:26.468Z,24.10
2018-12-14T00:36:55.641Z,24.43
2018-12-14T00:39:24.735Z,24.57
2018-12-14T00:41:53.755Z,22.80
2018-12-14T00:44:23.069Z,22.73
2018-12-14T00:46:52.138Z,23.33
2018-12-14T00:49:21.571Z,23.53
2018-12-14T00:51:50.594Z,23.40
2018-12-14T00:54:19.846Z,24.20
2018-12-14T00:56:49.924Z,24.90
2018-12-14T00:59:19.020Z,23.37
2018-12-14T01:01:48.112Z,24.43
2018-12-14T01:04:17.271Z,23.43
2018-12-14T01:06:46.699Z,24.63
2018-12-14T01:09:15.947Z,26.47
2018-12-14T01:11:45.368Z,24.17
2018-12-14T01:14:14.674Z,25.47
2018-12-14T01:16:43.860Z,25.00
2018-12-14T01:19:13.114Z,25.13
2018-12-14T01:21:42.326Z,23.30
2018-12-14T01:24:11.453Z,24.80
2018-12-14T01:26:40.502Z,26.10
2018-12-14T01:29:09.633Z,24.57
2018-12-14T01:31:38.662Z,25.80
2018-12-14T01:34:07.735Z,24.37
2018-12-14T01:36:36.799Z,23.90
2018-12-14T01:39:07.833Z,26.57
2018-12-14T01:41:37.712Z,25.33
2018-12-14T01:44:06.876Z,25.43
2018-12-14T01:46:35.960Z,25.87
2018-12-14T01:49:05.161Z,24.53
2018-12-14T01:51:34.432Z,25.90
2018-12-14T01:54:03.516Z,27.13
2018-12-14T01:56:32.738Z,27.07
2018-12-14T01:59:02.456Z,26.30
2018-12-14T02:01:31.513Z,25.53
2018-12-14T02:04:01.384Z,27.77
2018-12-14T02:06:30.463Z,27.00
2018-12-14T02:08:59.507Z,26.87
2018-12-14T02:11:28.684Z,27.70
2018-12-14T02:13:57.914Z,26.00
2018-12-14T02:16:27.066Z,25.10
2018-12-14T02:18:56.138Z,26.43
2018-12-14T02:21:25.257Z,26.70
2018-12-14T02:23:54.515Z,26.13
2018-12-14T02:26:23.843Z,27.37
2018-12-14T02:28:52.904Z,29.30
2018-12-14T02:31:22.166Z,29.47
2018-12-14T02:33:51.325Z,30.03
2018-12-14T02:36:20.465Z,30.00
2018-12-14T02:38:49.555Z,28.63
2018-12-14T02:41:18.835Z,28.90
2018-12-14T02:43:47.992Z,28.80
2018-12-14T02:46:17.246Z,27.27
2018-12-14T02:48:46.335Z,27.23
2018-12-14T02:51:15.404Z,28.07
2018-12-14T02:53:44.535Z,29.80
2018-12-14T02:56:13.691Z,27.97
2018-12-14T02:58:43.054Z,27.77
2018-12-14T03:01:12.247Z,27.80
2018-12-14T03:03:41.345Z,27.77
2018-12-14T03:06:10.442Z,27.53
2018-12-14T03:08:39.562Z,26.50
2018-12-14T03:11:09.330Z,26.97
2018-12-14T03:13:38.364Z,27.03
2018-12-14T03:16:07.603Z,26.83
2018-12-14T03:18:37.469Z,28.00
2018-12-14T03:21:06.617Z,25.73
2018-12-14T03:23:35.668Z,25.30
2018-12-14T03:26:05.047Z,26.47
2018-12-14T03:28:34.109Z,24.97
2018-12-14T03:31:03.734Z,25.30
2018-12-14T03:33:32.762Z,26.70
2018-12-14T03:36:01.848Z,25.90
2018-12-14T03:38:30.887Z,26.70
2018-12-14T03:41:00.233Z,27.83
2018-12-14T03:43:29.285Z,26.83
2018-12-14T03:45:58.363Z,25.57
2018-12-14T03:48:27.518Z,26.53
2018-12-14T03:50:56.646Z,26.07
2018-12-14T03:53:26.704Z,27.57
2018-12-14T03:55:55.885Z,26.87
2018-12-14T03:58:24.941Z,27.57
2018-12-14T04:00:54.178Z,27.47
2018-12-14T04:03:23.457Z,27.20
2018-12-14T04:05:52.686Z,28.67
2018-12-14T04:08:21.991Z,28.63
2018-12-14T04:10:51.058Z,29.13
2018-12-14T04:13:20.329Z,28.97
2018-12-14T04:15:49.730Z,27.40
2018-12-14T04:18:18.771Z,28.03
2018-12-14T04:20:47.835Z,28.73
2018-12-14T04:23:16.979Z,28.33
2018-12-14T04:25:46.078Z,29.60
2018-12-14T04:28:15.294Z,29.73
2018-12-14T04:30:44.346Z,28.97
2018-12-14T04:33:13.898Z,29.47
2018-12-14T04:35:43.153Z,29.67
2018-12-14T04:38:12.231Z,29.97
2018-12-14T04:40:41.767Z,31.07
2018-12-14T04:43:10.990Z,30.10
2018-12-14T04:45:40.234Z,31.00
2018-12-14T04:48:09.312Z,30.70
2018-12-14T04:50:38.387Z,31.47
2018-12-14T04:53:07.437Z,29.77
2018-12-14T04:55:36.886Z,32.47
2018-12-14T04:58:07.096Z,32.00
2018-12-14T05:00:36.348Z,31.77
2018-12-14T05:03:05.507Z,31.67
2018-12-14T05:05:34.663Z,29.27
2018-12-14T05:08:04.210Z,31.57
2018-12-14T05:10:33.739Z,31.23
2018-12-14T05:13:02.809Z,28.80
2018-12-14T05:15:31.946Z,29.87
2018-12-14T05:18:01.083Z,28.50
2018-12-14T05:20:30.381Z,29.70
2018-12-14T05:22:59.705Z,29.23
2018-12-14T05:25:29.223Z,30.57
2018-12-14T05:27:58.293Z,28.30
2018-12-14T05:30:27.334Z,28.93
2018-12-14T05:32:56.403Z,28.43
2018-12-14T05:35:25.502Z,28.93
2018-12-14T05:37:54.563Z,29.23
2018-12-14T05:40:30.259Z,29.17
2018-12-14T05:43:02.602Z,28.57
2018-12-14T05:45:30.357Z,27.53
2018-12-14T05:48:00.002Z,29.80
2018-12-14T05:50:29.048Z,29.60
2018-12-14T05:52:58.563Z,29.63
2018-12-14T05:55:28.408Z,29.10
2018-12-14T05:57:57.563Z,29.77
2018-12-14T06:00:26.770Z,29.17
2018-12-14T06:02:55.869Z,29.63
2018-12-14T06:05:25.229Z,28.80
2018-12-14T06:07:54.562Z,30.73
2018-12-14T06:10:23.598Z,28.27
2018-12-14T06:12:53.260Z,30.37
2018-12-14T06:15:22.298Z,29.13
2018-12-14T06:17:51.366Z,28.90
2018-12-14T06:20:20.649Z,31.80
2018-12-14T06:22:49.752Z,31.53
2018-12-14T06:25:18.942Z,28.50
2018-12-14T06:27:48.591Z,29.53
2018-12-14T06:30:17.653Z,27.13
2018-12-14T06:32:46.724Z,28.00
2018-12-14T06:35:15.787Z,27.83
2018-12-14T06:37:45.048Z,28.83
2018-12-14T06:40:14.558Z,27.17
2018-12-14T06:42:43.795Z,27.50
2018-12-14T06:45:13.308Z,27.67
2018-12-14T06:47:42.342Z,27.67
2018-12-14T06:50:11.564Z,27.97
2018-12-14T06:52:42.097Z,28.60
2018-12-14T06:55:11.397Z,28.50
2018-12-14T06:57:40.430Z,29.40
2018-12-14T07:00:09.785Z,28.57
2018-12-14T07:02:39.179Z,28.17
2018-12-14T07:05:08.224Z,27.80
2018-12-14T07:07:37.325Z,28.00
2018-12-14T07:10:06.994Z,28.30
2018-12-14T07:12:36.140Z,29.37
2018-12-14T07:15:05.530Z,29.13
2018-12-14T07:17:34.609Z,29.77
2018-12-14T07:20:04.119Z,29.97
2018-12-14T07:22:33.435Z,29.03
2018-12-14T07:25:02.704Z,28.63
2018-12-14T07:27:31.763Z,28.90
2018-12-14T07:30:00.775Z,28.47
2018-12-14T07:32:30.000Z,29.00
2018-12-14T07:34:59.057Z,27.70
2018-12-14T07:37:28.080Z,28.53
2018-12-14T07:39:57.771Z,29.37
2018-12-14T07:42:26.946Z,28.47
2018-12-14T07:44:56.148Z,29.23
2018-12-14T07:47:25.956Z,28.80
2018-12-14T07:49:55.171Z,29.87
2018-12-14T07:52:24.820Z,29.87
2018-12-14T07:54:53.898Z,29.83
2018-12-14T07:57:23.218Z,30.13
2018-12-14T07:59:52.259Z,28.70
2018-12-14T08:02:21.346Z,30.87
2018-12-14T08:04:50.391Z,31.83
2018-12-14T08:07:19.461Z,32.03
2018-12-14T08:09:48.578Z,31.10
2018-12-14T08:12:17.609Z,30.83
2018-12-14T08:14:46.644Z,30.67
2018-12-14T08:17:15.796Z,30.93
2018-12-14T08:19:45.183Z,30.43
2018-12-14T08:22:14.490Z,31.57
2018-12-14T08:24:43.649Z,29.80
2018-12-14T08:27:12.799Z,31.27
2018-12-14T08:29:41.859Z,31.80
2018-12-14T08:32:10.955Z,30.47
2018-12-14T08:34:40.107Z,31.07
2018-12-14T08:37:09.262Z,31.20
2018-12-14T08:39:38.438Z,32.17
2018-12-14T08:42:07.556Z,32.53
2018-12-14T08:44:36.767Z,30.57
2018-12-14T08:47:06.531Z,33.70
2018-12-14T08:49:35.577Z,33.27
2018-12-14T08:52:04.633Z,34.20
2018-12-14T08:54:33.675Z,33.83
2018-12-14T08:57:02.767Z,33.77
2018-12-14T08:59:32.096Z,32.03
2018-12-14T09:02:02.252Z,32.90
2018-12-14T09:04:31.312Z,34.03
2018-12-14T09:07:00.370Z,32.67
2018-12-14T09:09:29.708Z,35.30
2018-12-14T09:11:58.922Z,33.17
2018-12-14T09:14:28.360Z,33.87
2018-12-14T09:16:57.526Z,34.23
2018-12-14T09:19:26.581Z,35.77
2018-12-14T09:21:55.977Z,34.60
2018-12-14T09:24:25.056Z,32.73
2018-12-14T09:26:54.197Z,32.83
2018-12-14T09:29:23.435Z,33.57
2018-12-14T09:31:52.688Z,33.77
2018-12-14T09:34:21.785Z,32.80
2018-12-14T09:36:51.860Z,32.67
2018-12-14T09:39:20.933Z,32.10
2018-12-14T09:41:50.143Z,32.97
2018-12-14T09:44:19.213Z,32.27
2018-12-14T09:46:48.286Z,32.80
2018-12-14T09:49:18.042Z,31.33
2018-12-14T09:51:47.138Z,29.00
2018-12-14T09:54:16.266Z,30.07
2018-12-14T09:56:45.631Z,31.00
2018-12-14T09:59:14.709Z,30.37
2018-12-14T10:01:44.252Z,30.50
2018-12-14T10:04:13.314Z,28.97
2018-12-14T10:06:42.430Z,29.53
2018-12-14T10:09:12.302Z,28.40
2018-12-14T10:11:41.359Z,28.90
2018-12-14T10:14:11.615Z,29.43
2018-12-14T10:16:40.710Z,28.97
2018-12-14T10:19:09.872Z,29.03
2018-12-14T10:21:39.056Z,29.47
2018-12-14T10:24:08.262Z,29.93
2018-12-14T10:26:37.315Z,29.70
2018-12-14T10:29:06.389Z,30.00
2018-12-14T10:31:35.864Z,29.93
2018-12-14T10:34:04.887Z,29.30
2018-12-14T10:36:34.073Z,28.40
2018-12-14T10:39:04.886Z,29.13
2018-12-14T10:41:33.972Z,28.80
2018-12-14T10:44:07.388Z,29.07
2018-12-14T10:46:34.891Z,28.77
2018-12-14T10:49:04.238Z,27.33
2018-12-14T10:51:33.877Z,28.70
2018-12-14T10:54:02.963Z,30.23
2018-12-14T10:56:32.048Z,27.43
2018-12-14T10:59:01.111Z,29.03
2018-12-14T11:01:35.606Z,28.37
2018-12-14T11:04:05.679Z,28.63
2018-12-14T11:06:34.848Z,28.23
2018-12-14T11:09:05.788Z,28.27
2018-12-14T11:11:34.832Z,27.53
2018-12-14T11:14:04.877Z,25.80
2018-12-14T11:16:34.124Z,27.60
2018-12-14T11:19:03.214Z,26.47
2018-12-14T11:21:33.847Z,26.03
2018-12-14T11:24:02.937Z,26.40
2018-12-14T11:26:32.236Z,27.00
2018-12-14T11:29:01.381Z,27.00
2018-12-14T11:31:30.425Z,25.73
2018-12-14T11:33:59.575Z,24.53
2018-12-14T11:36:28.763Z,24.63
2018-12-14T11:38:57.900Z,24.03
2018-12-14T11:41:27.357Z,25.37
2018-12-14T11:43:56.411Z,24.07
2018-12-14T11:46:26.328Z,24.17
2018-12-14T11:48:55.572Z,23.83
2018-12-14T11:51:26.683Z,24.20
2018-12-14T11:53:56.497Z,23.43
2018-12-14T11:56:25.557Z,23.90
2018-12-14T11:58:54.701Z,21.70
2018-12-14T12:01:23.969Z,21.97
2018-12-14T12:03:53.205Z,22.63
2018-12-14T12:06:22.731Z,21.43
2018-12-14T12:08:52.097Z,22.47
2018-12-14T12:11:21.130Z,22.17
2018-12-14T12:13:50.207Z,21.20
2018-12-14T12:16:19.689Z,21.33
2018-12-14T12:18:48.790Z,20.73
2018-12-14T12:21:18.030Z,19.40
2018-12-14T12:23:47.791Z,20.50
2018-12-14T12:26:16.837Z,19.60
2018-12-14T12:28:46.283Z,18.93
2018-12-14T12:31:15.956Z,18.07
2018-12-14T12:33:45.122Z,17.67
2018-12-14T12:36:14.357Z,16.80
2018-12-14T12:38:43.426Z,16.60
2018-12-14T12:41:12.627Z,17.17
2018-12-14T12:43:41.694Z,16.17
2018-12-14T12:46:11.122Z,16.60
2018-12-14T12:48:40.204Z,17.10
2018-12-14T12:51:09.307Z,17.47
2018-12-14T12:53:38.362Z,18.20
2018-12-14T12:56:07.842Z,16.40
2018-12-14T12:58:36.905Z,18.37
2018-12-14T13:01:05.996Z,17.17
2018-12-14T13:03:35.138Z,17.87
2018-12-14T13:06:04.862Z,18.73
2018-12-14T13:08:33.931Z,18.70
2018-12-14T13:11:03.188Z,18.37
2018-12-14T13:13:33.095Z,19.80
2018-12-14T13:16:02.312Z,20.27
2018-12-14T13:18:31.451Z,22.33
2018-12-14T13:21:00.740Z,21.33
2018-12-14T13:23:29.847Z,21.67
2018-12-14T13:25:59.139Z,22.73
2018-12-14T13:28:28.591Z,22.77
2018-12-14T13:30:57.889Z,22.47
2018-12-14T13:33:28.178Z,23.57
2018-12-14T13:35:57.516Z,21.97
2018-12-14T13:38:26.559Z,22.83
2018-12-14T13:40:55.685Z,22.20
2018-12-14T13:43:25.076Z,22.77
2018-12-14T13:45:54.949Z,22.10
2018-12-14T13:48:23.991Z,21.00
2018-12-14T13:50:53.380Z,22.43
2018-12-14T13:53:22.649Z,22.43
2018-12-14T13:55:52.684Z,22.40
2018-12-14T13:58:21.866Z,21.93
2018-12-14T14:00:50.902Z,21.50
2018-12-14T14:03:19.938Z,27.93
2018-12-14T14:05:49.370Z,21.90
2018-12-14T14:08:19.024Z,21.83
2018-12-14T14:10:48.118Z,22.70
2018-12-14T14:13:17.318Z,22.20
2018-12-14T14:15:50.703Z,23.37
2018-12-14T14:18:18.238Z,21.73
2018-12-14T14:20:47.315Z,22.70
2018-12-14T14:23:16.441Z,23.70
2018-12-14T14:25:47.518Z,22.97
2018-12-14T14:28:16.611Z,22.97
2018-12-14T14:30:45.716Z,23.40
2018-12-14T14:33:15.110Z,22.87
2018-12-14T14:35:44.180Z,24.50
2018-12-14T14:38:13.282Z,23.70
2018-12-14T14:40:42.339Z,24.93
2018-12-14T14:43:11.662Z,25.20
2018-12-14T14:45:41.077Z,25.93
2018-12-14T14:48:10.175Z,25.50
2018-12-14T14:50:39.244Z,25.53
2018-12-14T14:53:08.404Z,29.30
2018-12-14T14:55:37.787Z,26.93
2018-12-14T14:58:07.203Z,26.87
2018-12-14T15:00:36.242Z,26.33
2018-12-14T15:03:05.698Z,28.03
2018-12-14T15:05:34.930Z,27.67
2018-12-14T15:08:04.093Z,26.67
2018-12-14T15:10:33.171Z,27.87
2018-12-14T15:13:02.363Z,28.23
2018-12-14T15:15:31.511Z,29.00
2018-12-14T15:18:01.056Z,30.17
2018-12-14T15:20:30.189Z,29.00
2018-12-14T15:22:59.411Z,31.67
2018-12-14T15:25:28.477Z,31.60
2018-12-14T15:27:57.585Z,29.73
2018-12-14T15:30:26.770Z,31.00
2018-12-14T15:32:55.819Z,31.17
2018-12-14T15:35:25.200Z,32.37
2018-12-14T15:37:54.679Z,33.13
2018-12-14T15:40:24.087Z,31.00
2018-12-14T15:42:53.347Z,31.77
2018-12-14T15:45:22.560Z,32.43
2018-12-14T15:47:51.667Z,32.03
2018-12-14T15:50:20.810Z,32.80
2018-12-14T15:52:50.084Z,30.00
2018-12-14T15:55:19.151Z,31.27
2018-12-14T15:57:48.289Z,30.90
2018-12-14T16:00:17.612Z,29.60
2018-12-14T16:02:47.253Z,30.77
2018-12-14T16:05:16.929Z,30.67
2018-12-14T16:07:46.148Z,30.23
2018-12-14T16:10:15.892Z,31.40
2018-12-14T16:12:44.975Z,30.90
2018-12-14T16:15:19.673Z,30.93
2018-12-14T16:17:45.426Z,32.67
2018-12-14T16:20:14.618Z,32.83
2018-12-14T16:22:43.831Z,32.97
2018-12-14T16:25:13.125Z,34.30
2018-12-14T16:27:42.234Z,33.07
2018-12-14T16:30:11.528Z,34.20
2018-12-14T16:32:40.727Z,36.53
2018-12-14T16:35:09.900Z,35.50
2018-12-14T16:37:38.976Z,32.53
2018-12-14T16:40:08.337Z,34.67
2018-12-14T16:42:37.550Z,34.27
2018-12-14T16:45:07.377Z,34.40
2018-12-14T16:47:36.751Z,36.87
2018-12-14T16:50:07.229Z,35.70
2018-12-14T16:52:36.296Z,34.80
2018-12-14T16:55:06.877Z,36.03
2018-12-14T16:57:36.187Z,35.13
2018-12-14T17:00:06.771Z,35.70
2018-12-14T17:02:35.854Z,35.33
2018-12-14T17:05:05.318Z,34.63
2018-12-14T17:07:34.364Z,36.63
2018-12-14T17:10:03.890Z,35.63
2018-12-14T17:12:33.203Z,34.97
2018-12-14T17:15:02.295Z,37.17
2018-12-14T17:17:31.496Z,38.13
2018-12-14T17:20:00.823Z,37.37
2018-12-14T17:22:29.943Z,37.30
2018-12-14T17:24:59.008Z,36.83
2018-12-14T17:27:28.344Z,36.33
2018-12-14T17:29:57.709Z,38.87
2018-12-14T17:32:27.214Z,36.90
2018-12-14T17:34:56.515Z,36.30
2018-12-14T17:37:25.629Z,36.10
2018-12-14T17:39:54.681Z,37.27
2018-12-14T17:42:23.869Z,35.77
2018-12-14T17:44:53.100Z,37.23
2018-12-14T17:47:22.208Z,37.63
2018-12-14T17:49:51.411Z,36.87
2018-12-14T17:52:20.481Z,36.37
2018-12-14T17:54:49.830Z,36.03
2018-12-14T17:57:19.238Z,36.57
2018-12-14T17:59:48.429Z,36.30
2018-12-14T18:02:17.729Z,35.53
2018-12-14T18:04:46.925Z,35.33
2018-12-14T18:07:16.118Z,35.93
2018-12-14T18:09:45.258Z,34.67
2018-12-14T18:12:14.722Z,34.97
2018-12-14T18:14:44.042Z,35.73
2018-12-14T18:17:13.166Z,36.70
2018-12-14T18:19:42.553Z,35.33
2018-12-14T18:22:11.889Z,42.07
2018-12-14T18:24:41.030Z,41.00
2018-12-14T18:27:10.121Z,40.40
2018-12-14T18:29:39.375Z,39.10
2018-12-14T18:32:09.246Z,40.40
2018-12-14T18:34:38.614Z,39.70
2018-12-14T18:37:07.795Z,37.40
2018-12-14T18:39:36.969Z,37.90
2018-12-14T18:42:06.085Z,38.60
2018-12-14T18:44:35.570Z,37.77
2018-12-14T18:47:04.789Z,39.47
2018-12-14T18:49:33.988Z,39.37
2018-12-14T18:52:04.775Z,38.47
2018-12-14T18:54:34.013Z,35.93
2018-12-14T18:57:03.159Z,37.70
2018-12-14T18:59:32.750Z,37.30
2018-12-14T19:02:01.880Z,37.60
2018-12-14T19:04:31.077Z,38.53
2018-12-14T19:07:00.511Z,37.87
2018-12-14T19:09:29.766Z,35.07
2018-12-14T19:12:05.392Z,34.67
2018-12-14T19:14:34.546Z,36.83
2018-12-14T19:17:03.645Z,36.03
2018-12-14T19:19:32.749Z,37.00
2018-12-14T19:22:01.796Z,36.53
2018-12-14T19:24:31.051Z,36.83
2018-12-14T19:27:00.554Z,38.00
2018-12-14T19:29:29.791Z,36.83
2018-12-14T19:31:59.000Z,36.30
2018-12-14T19:34:31.461Z,36.23
2018-12-14T19:36:59.565Z,37.27
2018-12-14T19:39:29.121Z,37.20
2018-12-14T19:41:58.276Z,38.30
2018-12-14T19:44:27.735Z,37.40
2018-12-14T19:46:57.188Z,37.07
2018-12-14T19:49:26.308Z,37.07
2018-12-14T19:51:56.113Z,36.87
2018-12-14T19:54:26.684Z,39.03
2018-12-14T19:56:56.050Z,37.60
2018-12-14T19:59:25.225Z,35.07
2018-12-14T20:01:55.154Z,37.10
2018-12-14T20:04:24.368Z,38.20
2018-12-14T20:06:53.807Z,41.70
2018-12-14T20:09:22.996Z,55.67
2018-12-14T20:11:52.408Z,61.70
2018-12-14T20:14:24.235Z,49.73
2018-12-14T20:16:54.311Z,52.13
2018-12-14T20:19:24.544Z,55.33
2018-12-14T20:21:54.080Z,42.53
2018-12-14T20:24:23.481Z,47.33
2018-12-14T20:26:52.816Z,41.27
2018-12-14T20:29:22.102Z,37.90
2018-12-14T20:31:51.157Z,37.13
2018-12-14T20:34:20.787Z,36.20
2018-12-14T20:36:50.246Z,36.90
2018-12-14T20:39:19.463Z,36.23
2018-12-14T20:41:50.266Z,36.80
2018-12-14T20:44:20.440Z,35.60
2018-12-14T20:46:49.868Z,36.27
2018-12-14T20:49:19.193Z,35.63
2018-12-14T20:51:48.306Z,34.90
2018-12-14T20:54:17.822Z,34.80
2018-12-14T20:56:51.612Z,34.37
2018-12-14T20:59:19.064Z,35.50
2018-12-14T21:01:54.772Z,34.23
2018-12-14T21:04:23.823Z,36.60
2018-12-14T21:06:52.981Z,39.40
2018-12-14T21:09:22.476Z,33.63
2018-12-14T21:11:51.804Z,30.27
2018-12-14T21:14:21.391Z,28.33
2018-12-14T21:16:50.460Z,25.63
2018-12-14T21:19:19.625Z,33.30
2018-12-14T21:21:48.969Z,38.37
2018-12-14T21:24:18.160Z,37.60
2018-12-14T21:26:47.530Z,33.43
2018-12-14T21:29:16.610Z,29.13
2018-12-14T21:31:46.056Z,29.23
2018-12-14T21:34:15.372Z,28.17
2018-12-14T21:36:44.773Z,26.57
2018-12-14T21:39:13.893Z,24.70
2018-12-14T21:41:42.954Z,25.10
2018-12-14T21:44:12.943Z,24.83
2018-12-14T21:46:41.998Z,25.40
2018-12-14T21:49:11.293Z,25.23
2018-12-14T21:51:40.476Z,23.43
2018-12-14T21:54:09.549Z,21.67
2018-12-14T21:56:38.755Z,20.97
2018-12-14T21:59:07.900Z,22.20
2018-12-14T22:01:37.192Z,21.87
2018-12-14T22:04:06.274Z,20.50
2018-12-14T22:06:35.377Z,20.33
2018-12-14T22:09:08.676Z,19.73
2018-12-14T22:11:37.755Z,18.97
2018-12-14T22:14:06.853Z,18.73
2018-12-14T22:16:39.119Z,17.57
2018-12-14T22:19:07.311Z,17.00
2018-12-14T22:21:36.435Z,16.90
2018-12-14T22:24:05.635Z,16.53
2018-12-14T22:26:35.293Z,19.63
2018-12-14T22:29:04.773Z,22.30
2018-12-14T22:31:33.959Z,20.83
2018-12-14T22:34:03.309Z,20.87
2018-12-14T22:36:33.322Z,21.10
2018-12-14T22:39:02.394Z,21.57
2018-12-14T22:41:31.671Z,21.33
2018-12-14T22:44:00.892Z,20.83
2018-12-14T22:46:30.164Z,19.73
2018-12-14T22:48:59.212Z,20.60
2018-12-14T22:51:28.496Z,19.13
2018-12-14T22:53:57.813Z,19.10
2018-12-14T22:56:26.908Z,17.67
2018-12-14T22:58:56.257Z,17.37
2018-12-14T23:01:25.313Z,17.00
2018-12-14T23:03:54.366Z,16.50
2018-12-14T23:06:23.412Z,16.03
2018-12-14T23:08:52.500Z,17.30
2018-12-14T23:11:21.723Z,16.63
2018-12-14T23:13:51.173Z,15.77
2018-12-14T23:16:20.325Z,15.60
2018-12-14T23:18:49.681Z,15.63
2018-12-14T23:21:18.889Z,15.40
2018-12-14T23:23:47.993Z,15.27
2018-12-14T23:26:17.501Z,15.43
2018-12-14T23:28:47.268Z,16.23
2018-12-14T23:31:16.324Z,14.93
2018-12-14T23:33:46.155Z,15.67
2018-12-14T23:36:15.622Z,15.53
2018-12-14T23:38:44.718Z,15.87
2018-12-14T23:41:14.322Z,15.10
2018-12-14T23:43:43.494Z,15.20
2018-12-14T23:46:13.200Z,15.63
2018-12-14T23:48:42.299Z,14.33
2018-12-14T23:51:11.864Z,14.67
2018-12-14T23:53:42.001Z,16.03
2018-12-14T23:56:11.566Z,15.30
2018-12-14T23:58:41.104Z,15.70
